This is the latest recevied weather packets stored in our database for station/object EA6MW-10. If no packets are shown the sender has not sent any weather packets the latest 10 day(s).
| Time | Temp. | Humidity | Pressure | Rain* | Wind** | Luminosity | Snow |
|---|---|---|---|---|---|---|---|
| 1777444464 | 18.89° C | 68% | 1010.9 hPa | - | - | - | - |
| 1777443571 | 17.22° C | 74% | 1011.1 hPa | - | - | - | - |
| 1777442660 | 16.67° C | 76% | 1011.1 hPa | - | - | - | - |
| 1777441760 | 15° C | 80% | 1011 hPa | - | - | - | - |
| 1777440859 | 14.44° C | 85% | 1010.8 hPa | - | - | - | - |
| 1777439958 | 13.89° C | 87% | 1010.6 hPa | - | - | - | - |
| 1777439058 | 13.89° C | 84% | 1010.3 hPa | - | - | - | - |
| 1777438158 | 13.89° C | 86% | 1010.3 hPa | - | - | - | - |
| 1777437257 | 13.89° C | 86% | 1010.4 hPa | - | - | - | - |
| 1777436357 | 13.89° C | 85% | 1010.5 hPa | - | - | - | - |
| 1777435457 | 14.44° C | 85% | 1010.5 hPa | - | - | - | - |
| 1777434557 | 14.44° C | 85% | 1010.8 hPa | - | - | - | - |
| 1777433657 | 14.44° C | 85% | 1010.8 hPa | - | - | - | - |
| 1777432756 | 13.89° C | 86% | 1010.9 hPa | - | - | - | - |
| 1777431856 | 14.44° C | 86% | 1010.8 hPa | - | - | - | - |
| 1777430956 | 14.44° C | 86% | 1011 hPa | - | - | - | - |
| 1777430056 | 14.44° C | 85% | 1011.2 hPa | - | - | - | - |
| 1777429155 | 15° C | 83% | 1011.4 hPa | - | - | - | - |
| 1777428269 | 15.56° C | 81% | 1011.6 hPa | - | - | - | - |
| 1777427355 | 16.11° C | 81% | 1011.5 hPa | - | - | - | - |
| 1777426469 | 16.67° C | 78% | 1011.7 hPa | - | - | - | - |
| 1777425554 | 16.67° C | 75% | 1011.7 hPa | - | - | - | - |
| 1777424653 | 16.67° C | 76% | 1011.9 hPa | - | - | - | - |
| 1777423753 | 16.67° C | 75% | 1011.9 hPa | - | - | - | - |
| 1777422853 | 16.67° C | 76% | 1012.2 hPa | - | - | - | - |
* Rain since midnight (hover to see other rain measurements)
** Current wind speed in m/s (hover to see current wind gust speed)